createdAt,value
2018-02-09T00:00:52.340Z,72.05
2018-02-09T00:02:02.458Z,71.67
2018-02-09T00:03:12.598Z,72.14
2018-02-09T00:04:22.720Z,72.33
2018-02-09T00:05:32.973Z,72.33
2018-02-09T00:06:43.356Z,72.14
2018-02-09T00:07:53.504Z,72.52
2018-02-09T00:09:03.651Z,72.24
2018-02-09T00:10:13.910Z,72.24
2018-02-09T00:11:25.256Z,72.67
2018-02-09T00:12:35.062Z,72.99
2018-02-09T00:13:46.200Z,72.8
2018-02-09T00:14:57.450Z,73.09
2018-02-09T00:16:07.552Z,73.33
2018-02-09T00:17:17.662Z,73.24
2018-02-09T00:18:27.913Z,73.43
2018-02-09T00:19:37.541Z,73.62
2018-02-09T00:20:48.653Z,73.71
2018-02-09T00:21:58.755Z,73.52
2018-02-09T00:23:08.318Z,73.43
2018-02-09T00:24:18.421Z,73.52
2018-02-09T00:25:30.840Z,73.81
2018-02-09T00:26:40.941Z,74.09
2018-02-09T00:27:51.066Z,74
2018-02-09T00:29:00.952Z,73.9
2018-02-09T00:30:10.812Z,73.94
2018-02-09T00:31:20.992Z,74.13
2018-02-09T00:32:31.130Z,74.32
2018-02-09T00:33:41.265Z,74.04
2018-02-09T00:34:51.235Z,73.85
2018-02-09T00:36:01.363Z,74.13
2018-02-09T00:37:11.493Z,74.32
2018-02-09T00:38:21.698Z,73.9
2018-02-09T00:39:31.852Z,73.81
2018-02-09T00:40:41.754Z,74.09
2018-02-09T00:41:51.903Z,74.47
2018-02-09T00:43:02.053Z,74.28
2018-02-09T00:44:11.925Z,74.28
2018-02-09T00:45:21.834Z,74.38
2018-02-09T00:46:32.012Z,74.57
2018-02-09T00:47:42.119Z,74.66
2018-02-09T00:48:52.254Z,74.85
2018-02-09T00:50:02.371Z,74.95
2018-02-09T00:51:12.502Z,74.95
2018-02-09T00:52:22.647Z,74.66
2018-02-09T00:53:32.781Z,75.04
2018-02-09T00:54:42.888Z,74.95
2018-02-09T00:55:52.766Z,74.95
2018-02-09T00:57:02.907Z,74.85
2018-02-09T00:58:13.051Z,75.13
2018-02-09T00:59:23.499Z,75.6
2018-02-09T01:00:34.592Z,75.6
2018-02-09T01:01:44.716Z,75.42
2018-02-09T01:02:55.871Z,75.6
2018-02-09T01:04:06.149Z,75.42
2018-02-09T01:05:16.274Z,75.32
2018-02-09T01:06:26.383Z,75.23
2018-02-09T01:07:36.496Z,75.32
2018-02-09T01:08:46.515Z,75.23
2018-02-09T01:09:56.758Z,75.32
2018-02-09T01:11:06.634Z,75.13
2018-02-09T01:12:16.757Z,75.6
2018-02-09T01:13:26.869Z,75.42
2018-02-09T01:14:37.018Z,75.32
2018-02-09T01:15:47.148Z,75.23
2018-02-09T01:16:57.251Z,75.51
2018-02-09T01:18:07.382Z,75.6
2018-02-09T01:19:17.487Z,75.89
2018-02-09T01:20:27.629Z,76.26
2018-02-09T01:21:37.836Z,75.89
2018-02-09T01:22:48.106Z,76.17
2018-02-09T01:23:58.208Z,75.7
2018-02-09T01:25:08.097Z,75.79
2018-02-09T01:26:18.254Z,75.89
2018-02-09T01:27:28.441Z,75.89
2018-02-09T01:28:38.546Z,76.36
2018-02-09T01:29:48.691Z,76.26
2018-02-09T01:30:58.803Z,75.98
2018-02-09T01:32:09.026Z,76.36
2018-02-09T01:33:19.259Z,76.32
2018-02-09T01:34:28.964Z,76.14
2018-02-09T01:35:39.097Z,76.7
2018-02-09T01:36:49.274Z,76.61
2018-02-09T01:37:59.372Z,76.79
2018-02-09T01:39:09.473Z,76.51
2018-02-09T01:40:19.582Z,76.42
2018-02-09T01:41:29.744Z,76.7
2018-02-09T01:42:39.639Z,76.61
2018-02-09T01:43:49.765Z,76.7
2018-02-09T01:44:59.625Z,76.98
2018-02-09T01:46:09.677Z,77.36
2018-02-09T01:47:19.812Z,77.36
2018-02-09T01:48:30.162Z,77.55
2018-02-09T01:49:40.294Z,77.17
2018-02-09T01:50:50.413Z,77.26
2018-02-09T01:52:00.521Z,77.26
2018-02-09T01:53:10.099Z,77.45
2018-02-09T01:54:20.367Z,77.55
2018-02-09T01:55:30.561Z,77.83
2018-02-09T01:56:41.677Z,77.36
2018-02-09T01:57:51.853Z,77.93
2018-02-09T01:59:02.212Z,78.16
2018-02-09T02:00:12.401Z,77.97
2018-02-09T02:01:22.648Z,77.97
2018-02-09T02:02:32.877Z,78.16
2018-02-09T02:03:43.011Z,77.97
2018-02-09T02:04:52.856Z,77.69
2018-02-09T02:06:02.973Z,77.59
2018-02-09T02:07:12.935Z,77.59
2018-02-09T02:08:23.046Z,77.31
2018-02-09T02:09:33.166Z,77.59
2018-02-09T02:10:43.351Z,77.5
2018-02-09T02:11:53.248Z,77.12
2018-02-09T02:13:03.455Z,77.31
2018-02-09T02:14:13.597Z,77.12
2018-02-09T02:15:23.503Z,77.59
2018-02-09T02:16:33.646Z,76.45
2018-02-09T02:17:43.714Z,76.55
2018-02-09T02:18:53.843Z,76.55
2018-02-09T02:20:03.742Z,76.74
2018-02-09T02:21:13.865Z,76.74
2018-02-09T02:22:23.985Z,76.55
2018-02-09T02:23:34.249Z,76.93
2018-02-09T02:24:44.106Z,76.36
2018-02-09T02:25:54.347Z,76.74
2018-02-09T02:27:04.576Z,76.45
2018-02-09T02:28:14.806Z,76.83
2018-02-09T02:29:24.945Z,76.83
2018-02-09T02:30:34.574Z,76.83
2018-02-09T02:31:44.692Z,76.64
2018-02-09T02:32:54.805Z,76.74
2018-02-09T02:34:05.014Z,77.02
2018-02-09T02:35:15.156Z,77.4
2018-02-09T02:36:25.284Z,77.36
2018-02-09T02:37:35.192Z,77.36
2018-02-09T02:38:45.294Z,77.45
2018-02-09T02:39:55.287Z,77.5
2018-02-09T02:41:05.172Z,77.31
2018-02-09T02:42:15.332Z,77.4
2018-02-09T02:43:25.441Z,77.12
2018-02-09T02:44:35.578Z,77.31
2018-02-09T02:45:45.680Z,77.02
2018-02-09T02:46:55.821Z,77.12
2018-02-09T02:48:06.086Z,77.31
2018-02-09T02:49:16.321Z,77.21
2018-02-09T02:50:26.445Z,77.59
2018-02-09T02:51:36.615Z,77.31
2018-02-09T02:52:46.725Z,77.21
2018-02-09T02:53:56.878Z,77.36
2018-02-09T02:55:07.019Z,77.36
2018-02-09T02:56:17.178Z,77.4
2018-02-09T02:57:27.088Z,77.36
2018-02-09T02:58:37.217Z,77.36
2018-02-09T02:59:48.354Z,77.45
2018-02-09T03:00:58.467Z,77.45
2018-02-09T03:02:08.573Z,77.45
2018-02-09T03:03:18.739Z,77.74
2018-02-09T03:04:28.844Z,77.83
2018-02-09T03:05:38.964Z,77.74
2018-02-09T03:06:49.121Z,77.45
2018-02-09T03:07:59.314Z,77.64
2018-02-09T03:09:09.606Z,77.74
2018-02-09T03:10:19.739Z,78.02
2018-02-09T03:11:29.970Z,78.02
2018-02-09T03:12:40.252Z,78.02
2018-02-09T03:13:50.490Z,77.93
2018-02-09T03:15:00.874Z,77.93
2018-02-09T03:16:11.031Z,78.02
2018-02-09T03:17:21.189Z,78.02
2018-02-09T03:18:31.421Z,77.93
2018-02-09T03:19:41.547Z,77.83
2018-02-09T03:20:51.475Z,78.02
2018-02-09T03:22:01.609Z,78.12
2018-02-09T03:23:11.513Z,78.31
2018-02-09T03:24:21.627Z,77.74
2018-02-09T03:25:31.726Z,78.12
2018-02-09T03:26:41.896Z,78.12
2018-02-09T03:27:52.105Z,78.12
2018-02-09T03:29:02.222Z,78.21
2018-02-09T03:30:12.364Z,78.68
2018-02-09T03:31:22.493Z,78.31
2018-02-09T03:32:32.610Z,78.59
2018-02-09T03:33:42.706Z,78.59
2018-02-09T03:34:52.833Z,78.21
2018-02-09T03:36:02.954Z,77.93
2018-02-09T03:37:13.074Z,77.93
2018-02-09T03:38:25.228Z,78.02
2018-02-09T03:39:35.086Z,77.64
2018-02-09T03:40:45.225Z,78.68
2018-02-09T03:41:57.443Z,78.59
2018-02-09T03:43:07.297Z,78.4
2018-02-09T03:44:17.397Z,78.21
2018-02-09T03:45:27.506Z,78.59
2018-02-09T03:46:37.617Z,78.4
2018-02-09T03:47:47.831Z,78.31
2018-02-09T03:48:58.023Z,78.4
2018-02-09T03:50:08.395Z,78.12
2018-02-09T03:51:18.542Z,78.31
2018-02-09T03:52:28.814Z,78.5
2018-02-09T03:53:38.950Z,78.4
2018-02-09T03:54:49.295Z,78.5
2018-02-09T03:55:59.467Z,78.21
2018-02-09T03:57:09.636Z,78.4
2018-02-09T03:58:19.813Z,78.5
2018-02-09T03:59:30.050Z,79.25
2018-02-09T04:00:40.228Z,78.97
2018-02-09T04:01:50.327Z,78.68
2018-02-09T04:03:00.432Z,79.06
2018-02-09T04:04:10.542Z,78.68
2018-02-09T04:05:20.402Z,79.16
2018-02-09T04:06:30.522Z,78.59
2018-02-09T04:07:40.680Z,78.59
2018-02-09T04:08:51.140Z,78.97
2018-02-09T04:10:01.247Z,78.87
2018-02-09T04:11:11.152Z,78.78
2018-02-09T04:12:21.247Z,79.06
2018-02-09T04:13:31.370Z,78.78
2018-02-09T04:14:41.475Z,78.87
2018-02-09T04:15:51.864Z,78.68
2018-02-09T04:17:02.010Z,78.78
2018-02-09T04:18:12.248Z,78.87
2018-02-09T04:19:22.405Z,79.25
2018-02-09T04:20:32.306Z,78.87
2018-02-09T04:21:42.489Z,79.06
2018-02-09T04:22:52.575Z,78.78
2018-02-09T04:24:02.922Z,78.87
2018-02-09T04:25:13.093Z,78.59
2018-02-09T04:26:23.303Z,78.78
2018-02-09T04:27:33.666Z,78.78
2018-02-09T04:28:43.512Z,78.68
2018-02-09T04:29:53.612Z,78.5
2018-02-09T04:31:03.721Z,78.59
2018-02-09T04:32:13.933Z,78.78
2018-02-09T04:33:24.089Z,78.59
2018-02-09T04:34:34.235Z,78.59
2018-02-09T04:35:44.342Z,78.97
2018-02-09T04:36:54.444Z,78.78
2018-02-09T04:38:04.282Z,78.68
2018-02-09T04:39:14.404Z,79.16
2018-02-09T04:40:24.523Z,78.59
2018-02-09T04:41:35.502Z,78.78
2018-02-09T04:42:45.418Z,78.59
2018-02-09T04:43:55.636Z,78.68
2018-02-09T04:45:05.774Z,78.97
2018-02-09T04:46:15.949Z,78.87
2018-02-09T04:47:26.102Z,78.5
2018-02-09T04:48:36.216Z,79.06
2018-02-09T04:49:46.334Z,78.5
2018-02-09T04:50:56.498Z,78.59
2018-02-09T04:52:06.701Z,78.78
2018-02-09T04:53:16.816Z,78.87
2018-02-09T04:54:26.727Z,78.97
2018-02-09T04:55:36.984Z,78.78
2018-02-09T04:56:46.779Z,78.87
2018-02-09T04:57:56.874Z,79.06
2018-02-09T04:59:06.988Z,79.06
2018-02-09T05:00:17.162Z,78.97
2018-02-09T05:01:27.253Z,79.06
2018-02-09T05:02:37.012Z,78.97
2018-02-09T05:03:46.528Z,78.87
2018-02-09T05:04:56.722Z,78.59
2018-02-09T05:06:06.983Z,78.87
2018-02-09T05:07:17.241Z,78.87
2018-02-09T05:08:28.426Z,78.87
2018-02-09T05:09:38.563Z,78.31
2018-02-09T05:10:48.843Z,78.4
2018-02-09T05:11:59.091Z,78.97
2018-02-09T05:13:08.930Z,79.06
2018-02-09T05:14:19.049Z,78.97
2018-02-09T05:15:29.154Z,79.06
2018-02-09T05:16:39.340Z,79.53
2018-02-09T05:17:49.215Z,79.44
2018-02-09T05:18:59.406Z,78.97
2018-02-09T05:20:09.604Z,78.97
2018-02-09T05:21:19.763Z,78.97
2018-02-09T05:22:29.994Z,78.97
2018-02-09T05:23:40.147Z,79.63
2018-02-09T05:24:50.428Z,79.44
2018-02-09T05:26:00.296Z,79.35
2018-02-09T05:27:10.151Z,79.35
2018-02-09T05:28:20.143Z,79.35
2018-02-09T05:29:30.329Z,79.35
2018-02-09T05:30:40.460Z,79.44
2018-02-09T05:31:51.545Z,79.53
2018-02-09T05:33:02.134Z,79.44
2018-02-09T05:34:12.298Z,78.87
2018-02-09T05:35:22.495Z,78.87
2018-02-09T05:36:32.739Z,78.78
2018-02-09T05:37:42.984Z,79.06
2018-02-09T05:38:53.183Z,78.97
2018-02-09T05:40:03.299Z,78.97
2018-02-09T05:41:13.642Z,78.97
2018-02-09T05:42:23.853Z,79.25
2018-02-09T05:43:33.716Z,79.44
2018-02-09T05:44:43.820Z,79.63
2018-02-09T05:45:53.988Z,79.06
2018-02-09T05:47:04.188Z,78.78
2018-02-09T05:48:14.374Z,79.44
2018-02-09T05:49:24.664Z,79.72
2018-02-09T05:50:34.506Z,79.53
2018-02-09T05:51:44.658Z,79.44
2018-02-09T05:52:54.826Z,79.25
2018-02-09T05:54:04.679Z,79.35
2018-02-09T05:55:14.772Z,79.91
2018-02-09T05:56:25.964Z,79.82
2018-02-09T05:57:36.126Z,79.44
2018-02-09T05:58:45.893Z,79.72
2018-02-09T05:59:56.168Z,79.72
2018-02-09T06:01:06.384Z,79.63
2018-02-09T06:02:16.222Z,79.53
2018-02-09T06:03:26.344Z,79.91
2018-02-09T06:04:36.521Z,79.82
2018-02-09T06:05:46.655Z,79.91
2018-02-09T06:06:56.749Z,79.72
2018-02-09T06:08:06.362Z,79.63
2018-02-09T06:09:16.504Z,80.1
2018-02-09T06:10:26.721Z,80.19
2018-02-09T06:11:36.840Z,80.1
2018-02-09T06:12:46.950Z,80
2018-02-09T06:13:57.065Z,80.19
2018-02-09T06:15:07.210Z,80.19
2018-02-09T06:16:17.374Z,80.29
2018-02-09T06:17:27.326Z,80.29
2018-02-09T06:18:38.410Z,80.66
2018-02-09T06:19:48.516Z,79.91
2018-02-09T06:20:58.733Z,80.19
2018-02-09T06:22:08.902Z,80.1
2018-02-09T06:23:18.757Z,80.57
2018-02-09T06:24:28.974Z,80.57
2018-02-09T06:25:39.174Z,80.76
2018-02-09T06:26:49.316Z,80
2018-02-09T06:27:59.425Z,80.1
2018-02-09T06:29:09.552Z,80.19
2018-02-09T06:30:19.659Z,79.91
2018-02-09T06:31:29.795Z,80.19
2018-02-09T06:32:39.676Z,80.1
2018-02-09T06:33:49.820Z,80.1
2018-02-09T06:34:59.944Z,80.76
2018-02-09T06:36:10.099Z,80.29
2018-02-09T06:37:20.226Z,80.85
2018-02-09T06:38:30.557Z,80.66
2018-02-09T06:39:43.700Z,80.95
2018-02-09T06:40:53.918Z,80.57
2018-02-09T06:42:03.833Z,80.57
2018-02-09T06:43:13.937Z,80.85
2018-02-09T06:44:24.147Z,80.85
2018-02-09T06:45:34.306Z,80.48
2018-02-09T06:46:44.502Z,80.76
2018-02-09T06:47:55.581Z,81.04
2018-02-09T06:49:05.689Z,81.23
2018-02-09T06:50:15.196Z,80.48
2018-02-09T06:51:26.299Z,80.38
2018-02-09T06:52:38.802Z,81.33
2018-02-09T06:53:48.688Z,80.85
2018-02-09T06:54:58.778Z,81.04
2018-02-09T06:56:08.880Z,81.14
2018-02-09T06:57:19.053Z,81.33
2018-02-09T06:58:29.269Z,81.23
2018-02-09T06:59:39.151Z,81.14
2018-02-09T07:00:49.003Z,80.95
2018-02-09T07:01:59.115Z,80.95
2018-02-09T07:03:09.242Z,81.04
2018-02-09T07:04:19.424Z,81.14
2018-02-09T07:05:29.564Z,81.23
2018-02-09T07:06:39.401Z,81.33
2018-02-09T07:07:49.250Z,81.33
2018-02-09T07:08:59.422Z,81.23
2018-02-09T07:10:09.562Z,81.14
2018-02-09T07:11:19.892Z,81.2
2018-02-09T07:12:30.403Z,81.33
2018-02-09T07:13:40.879Z,81.42
2018-02-09T07:14:51.970Z,81.8
2018-02-09T07:16:02.516Z,81.71
2018-02-09T07:17:12.853Z,81.61
2018-02-09T07:18:23.066Z,81.71
2018-02-09T07:19:33.240Z,81.99
2018-02-09T07:20:43.497Z,81.14
2018-02-09T07:21:53.720Z,81.42
2018-02-09T07:23:03.900Z,80.95
2018-02-09T07:24:14.104Z,81.14
2018-02-09T07:25:23.972Z,80.8
2018-02-09T07:26:34.088Z,80.8
2018-02-09T07:27:44.302Z,80.24
2018-02-09T07:28:53.961Z,80.05
2018-02-09T07:30:04.131Z,80.14
2018-02-09T07:31:14.299Z,80.14
2018-02-09T07:32:24.176Z,80.14
2018-02-09T07:33:35.008Z,80.24
2018-02-09T07:34:45.138Z,79.95
2018-02-09T07:35:55.382Z,79.29
2018-02-09T07:37:05.609Z,79.38
2018-02-09T07:38:15.763Z,78.86
2018-02-09T07:39:26.008Z,79.05
2018-02-09T07:40:35.940Z,78.76
2018-02-09T07:41:46.266Z,78.48
2018-02-09T07:42:56.382Z,78.39
2018-02-09T07:44:06.246Z,78.2
2018-02-09T07:45:16.403Z,77.63
2018-02-09T07:46:26.507Z,77.25
2018-02-09T07:47:36.635Z,77.15
2018-02-09T07:48:46.844Z,77.29
2018-02-09T07:49:57.056Z,76.72
2018-02-09T07:51:08.213Z,76.72
2018-02-09T07:52:18.375Z,76.72
2018-02-09T07:53:28.602Z,76.44
2018-02-09T07:54:39.551Z,76.34
2018-02-09T07:55:49.698Z,76.06
2018-02-09T07:57:01.311Z,76.06
2018-02-09T07:58:11.878Z,75.4
2018-02-09T07:59:21.949Z,75.4
2018-02-09T08:00:32.424Z,75.49
2018-02-09T08:01:42.822Z,75.02
2018-02-09T08:02:53.768Z,74.96
2018-02-09T08:04:04.587Z,74.58
2018-02-09T08:05:15.257Z,74.02
2018-02-09T08:06:25.200Z,74.21
2018-02-09T08:07:36.139Z,73.92
2018-02-09T08:08:46.713Z,73.77
2018-02-09T08:09:58.447Z,73.58
2018-02-09T08:11:11.019Z,73.11
2018-02-09T08:12:21.816Z,72.82
2018-02-09T08:13:37.979Z,72.86
2018-02-09T08:14:48.414Z,72.38
2018-02-09T08:15:59.408Z,71.91
2018-02-09T08:17:09.816Z,71.81
2018-02-09T08:18:22.387Z,70.87
2018-02-09T08:19:32.700Z,71.25
2018-02-09T08:20:43.100Z,70.68
2018-02-09T08:21:55.155Z,70.3
2018-02-09T08:23:05.920Z,70.05
2018-02-09T08:24:16.300Z,69.67
2018-02-09T08:25:26.605Z,69.48
2018-02-09T08:26:37.153Z,69.01
2018-02-09T08:27:47.683Z,68.57
2018-02-09T08:28:58.848Z,68.06
2018-02-09T08:30:09.711Z,67.77
2018-02-09T08:31:20.788Z,67.71
2018-02-09T08:32:32.139Z,67.81
2018-02-09T08:33:43.350Z,67.24
2018-02-09T08:34:54.533Z,66.67
2018-02-09T08:36:05.770Z,66.96
2018-02-09T08:37:17.626Z,66.04
2018-02-09T08:38:48.934Z,65.28
2018-02-09T08:40:00.151Z,65.37
2018-02-09T08:41:45.528Z,64.9
2018-02-09T08:46:20.555Z,63.6
2018-02-09T08:47:34.177Z,63.42
2018-02-09T08:48:46.210Z,62.88
2018-02-09T08:49:57.620Z,62.88
2018-02-09T08:51:10.560Z,61.93
2018-02-09T08:52:21.100Z,61.93
2018-02-09T08:53:31.476Z,61.17
2018-02-09T08:54:43.907Z,61.2
2018-02-09T08:55:55.343Z,60.91
2018-02-09T08:57:07.397Z,60.44
2018-02-09T08:58:19.540Z,59.87
2018-02-09T08:59:30.673Z,59.77
2018-02-09T09:00:41.183Z,59.49
2018-02-09T09:01:51.763Z,59.01
2018-02-09T09:03:02.105Z,58.57
2018-02-09T09:04:12.668Z,58.57
2018-02-09T09:05:22.852Z,57.71
2018-02-09T09:06:33.488Z,57.43
2018-02-09T09:07:44.797Z,57.62
2018-02-09T09:08:55.554Z,57.43
2018-02-09T09:10:06.270Z,56.95
2018-02-09T09:11:16.493Z,56.29
2018-02-09T09:12:26.934Z,56.48
2018-02-09T09:13:37.293Z,56.29
2018-02-09T09:14:47.470Z,56.29
2018-02-09T09:15:57.619Z,55.9
2018-02-09T09:17:08.222Z,56.19
2018-02-09T09:18:18.991Z,56.19
2018-02-09T09:19:29.576Z,55.81
2018-02-09T09:20:40.449Z,55.81
2018-02-09T09:21:50.807Z,56.1
2018-02-09T09:23:01.167Z,55.5
2018-02-09T09:24:11.544Z,55.4
2018-02-09T09:25:22.796Z,55.5
2018-02-09T09:26:33.180Z,55.62
2018-02-09T09:27:43.293Z,55.24
2018-02-09T09:28:54.433Z,54.77
2018-02-09T09:30:04.557Z,54.77
2018-02-09T09:31:14.706Z,54.77
2018-02-09T09:32:24.890Z,54.69
2018-02-09T09:33:35.576Z,54.69
2018-02-09T09:34:45.988Z,54.6
2018-02-09T09:35:56.309Z,54.6
2018-02-09T09:37:06.462Z,54.32
2018-02-09T09:38:16.798Z,54.06
2018-02-09T09:39:27.049Z,53.77
2018-02-09T09:40:37.171Z,53.96
2018-02-09T09:41:47.529Z,53.58
2018-02-09T09:42:57.678Z,53.58
2018-02-09T09:44:08.113Z,53.01
2018-02-09T09:45:18.500Z,53.13
2018-02-09T09:46:28.889Z,52.75
2018-02-09T09:47:39.095Z,52.37
2018-02-09T09:48:49.233Z,52.28
2018-02-09T09:49:59.356Z,51.99
2018-02-09T09:51:09.492Z,51.42
2018-02-09T09:52:19.615Z,50.94
2018-02-09T09:53:29.795Z,50.94
2018-02-09T09:54:40.056Z,51.04
2018-02-09T09:55:50.253Z,51.01
2018-02-09T09:57:00.488Z,50.73
2018-02-09T09:58:10.735Z,50.92
2018-02-09T09:59:20.900Z,51.2
2018-02-09T10:00:31.152Z,50.92
2018-02-09T10:01:41.581Z,51.01
2018-02-09T10:02:51.452Z,51.2
2018-02-09T10:04:01.598Z,51.39
2018-02-09T10:05:11.734Z,51.14
2018-02-09T10:06:21.628Z,50.85
2018-02-09T10:07:31.759Z,50.56
2018-02-09T10:08:42.038Z,50.46
2018-02-09T10:09:51.931Z,50.56
2018-02-09T10:11:02.074Z,50.66
2018-02-09T10:12:12.205Z,50.56
2018-02-09T10:13:22.329Z,50.37
2018-02-09T10:14:32.480Z,50.4
2018-02-09T10:15:42.628Z,49.73
2018-02-09T10:16:52.504Z,49.73
2018-02-09T10:18:02.666Z,49.35
2018-02-09T10:19:12.892Z,49.06
2018-02-09T10:20:23.046Z,49.44
2018-02-09T10:21:33.260Z,48.87
2018-02-09T10:22:43.452Z,48.87
2018-02-09T10:23:53.586Z,48.78
2018-02-09T10:25:03.793Z,49.04
2018-02-09T10:26:13.683Z,48.85
2018-02-09T10:28:39.153Z,48.94
2018-02-09T10:29:49.289Z,49.23
2018-02-09T10:30:59.166Z,48.97
2018-02-09T10:32:10.208Z,49.23
2018-02-09T10:33:20.368Z,49.23
2018-02-09T10:35:46.747Z,49.06
2018-02-09T10:39:30.732Z,49.16
2018-02-09T10:43:14.774Z,48.21
2018-02-09T10:44:24.947Z,48.04
2018-02-09T10:45:35.238Z,48.04
2018-02-09T10:46:45.596Z,48.23
2018-02-09T10:47:55.762Z,48.04
2018-02-09T10:49:05.959Z,47.85
2018-02-09T10:50:16.223Z,47.37
2018-02-09T10:51:26.388Z,47.37
2018-02-09T10:52:36.540Z,47.47
2018-02-09T10:53:46.753Z,47.37
2018-02-09T10:54:56.691Z,47.37
2018-02-09T10:56:06.830Z,47.28
2018-02-09T10:57:16.971Z,46.92
2018-02-09T10:58:27.157Z,46.82
2018-02-09T10:59:37.423Z,46.54
2018-02-09T11:00:47.556Z,46.51
2018-02-09T11:01:58.675Z,46.32
2018-02-09T11:03:08.547Z,46.68
2018-02-09T11:04:18.811Z,47.34
2018-02-09T11:05:28.995Z,47.16
2018-02-09T11:06:39.202Z,47.25
2018-02-09T11:07:49.468Z,47.25
2018-02-09T11:08:59.734Z,47.34
2018-02-09T11:10:09.103Z,47.89
2018-02-09T11:11:19.287Z,47.8
2018-02-09T11:12:29.384Z,47.99
2018-02-09T11:13:39.684Z,47.89
2018-02-09T11:14:49.825Z,48.27
2018-02-09T11:16:00.004Z,47.8
2018-02-09T11:17:10.284Z,47.8
2018-02-09T11:18:20.574Z,48.08
2018-02-09T11:19:30.723Z,48.37
2018-02-09T11:20:40.935Z,48.75
2018-02-09T11:21:51.090Z,48.37
2018-02-09T11:23:01.275Z,48.18
2018-02-09T11:24:11.408Z,48.66
2018-02-09T11:25:21.549Z,48.56
2018-02-09T11:26:31.690Z,48.47
2018-02-09T11:27:41.813Z,48.56
2018-02-09T11:28:51.942Z,48.47
2018-02-09T11:30:02.123Z,48.66
2018-02-09T11:31:12.260Z,48.27
2018-02-09T11:32:22.409Z,48.37
2018-02-09T11:33:32.532Z,48.3
2018-02-09T11:34:43.674Z,47.92
2018-02-09T11:35:53.915Z,47.73
2018-02-09T11:37:04.132Z,47.73
2018-02-09T11:38:14.346Z,48.02
2018-02-09T11:39:24.541Z,47.37
2018-02-09T11:40:34.709Z,46.8
2018-02-09T11:41:46.041Z,46.51
2018-02-09T11:42:56.239Z,46.58
2018-02-09T11:44:06.443Z,46.78
2018-02-09T11:45:16.321Z,46.97
2018-02-09T11:46:26.509Z,46.78
2018-02-09T11:47:36.644Z,46.49
2018-02-09T11:48:46.806Z,46.56
2018-02-09T11:49:56.692Z,46.75
2018-02-09T11:51:06.836Z,46.87
2018-02-09T11:52:16.966Z,46.49
2018-02-09T11:53:27.120Z,46.49
2018-02-09T11:54:37.447Z,46.2
2018-02-09T11:55:47.352Z,45.83
2018-02-09T11:56:57.312Z,45.83
2018-02-09T11:58:07.495Z,45.92
2018-02-09T11:59:17.716Z,45.35
2018-02-09T12:00:27.883Z,45.8
2018-02-09T12:01:39.199Z,45.97
2018-02-09T12:02:49.421Z,46.35
2018-02-09T12:03:59.577Z,46.73
2018-02-09T12:05:09.466Z,46.83
2018-02-09T12:06:19.332Z,47.39
2018-02-09T12:07:29.464Z,46.83
2018-02-09T12:08:39.616Z,47.02
2018-02-09T12:09:49.751Z,47.2
2018-02-09T12:10:59.884Z,47.68
2018-02-09T12:12:10.028Z,48.13
2018-02-09T12:13:19.833Z,48.39
2018-02-09T12:14:29.982Z,48.39
2018-02-09T12:15:40.154Z,48.87
2018-02-09T12:16:50.288Z,48.96
2018-02-09T12:18:00.425Z,49.54
2018-02-09T12:19:10.580Z,49.79
2018-02-09T12:20:20.773Z,49.89
2018-02-09T12:21:30.998Z,50.08
2018-02-09T12:22:41.276Z,51.03
2018-02-09T12:23:51.450Z,50.46
2018-02-09T12:25:01.627Z,50.74
2018-02-09T12:26:11.841Z,50.74
2018-02-09T12:27:22.006Z,50.2
2018-02-09T12:28:32.373Z,50.39
2018-02-09T12:29:42.544Z,49.44
2018-02-09T12:30:52.755Z,49.82
2018-02-09T12:32:02.996Z,50.2
2018-02-09T12:33:12.873Z,50.77
2018-02-09T12:34:22.752Z,50.39
2018-02-09T12:35:32.773Z,50.04
2018-02-09T12:36:42.635Z,49.85
2018-02-09T12:37:52.784Z,49.18
2018-02-09T12:39:02.653Z,48.99
2018-02-09T12:40:12.783Z,49.18
2018-02-09T12:41:23.211Z,49.18
2018-02-09T12:42:33.686Z,48.99
2018-02-09T12:43:43.823Z,49.27
2018-02-09T12:44:54.063Z,49.46
2018-02-09T12:46:04.244Z,49.46
2018-02-09T12:47:14.462Z,49.65
2018-02-09T12:48:24.333Z,49.65
2018-02-09T12:49:34.470Z,49.11
2018-02-09T12:50:44.621Z,48.73
2018-02-09T12:51:54.886Z,49.27
2018-02-09T12:53:05.022Z,48.71
2018-02-09T12:54:14.907Z,48.9
2018-02-09T12:55:25.076Z,49.08
2018-02-09T12:56:35.230Z,48.99
2018-02-09T12:57:45.384Z,48.8
2018-02-09T12:58:55.712Z,48.61
2018-02-09T13:00:06.017Z,48.99
2018-02-09T13:01:16.174Z,49.18
2018-02-09T13:02:26.385Z,49.08
2018-02-09T13:03:37.608Z,49.27
2018-02-09T13:04:47.876Z,49.08
2018-02-09T13:05:58.074Z,49.54
2018-02-09T13:07:08.301Z,49.63
2018-02-09T13:08:18.570Z,49.73
2018-02-09T13:09:28.819Z,49.63
2018-02-09T13:10:38.955Z,49.82
2018-02-09T13:11:49.151Z,49.91
2018-02-09T13:12:59.331Z,49.89
2018-02-09T13:14:09.485Z,50.27
2018-02-09T13:15:19.701Z,50.37
2018-02-09T13:16:29.932Z,50.37
2018-02-09T13:17:40.109Z,50.56
2018-02-09T13:18:50.236Z,50.93
2018-02-09T13:20:00.422Z,50.84
2018-02-09T13:21:10.568Z,50.91
2018-02-09T13:22:20.703Z,51.57
2018-02-09T13:23:30.418Z,51.39
2018-02-09T13:24:40.639Z,51.76
2018-02-09T13:25:50.795Z,52.12
2018-02-09T13:27:00.950Z,52.4
2018-02-09T13:28:10.843Z,52.97
2018-02-09T13:29:21.004Z,52.59
2018-02-09T13:30:31.182Z,53.35
2018-02-09T13:31:41.439Z,53.54
2018-02-09T13:32:51.617Z,53
2018-02-09T13:34:01.764Z,53.28
2018-02-09T13:35:11.924Z,53.09
2018-02-09T13:36:22.083Z,52.53
2018-02-09T13:37:32.229Z,53.09
2018-02-09T13:38:42.371Z,53.28
2018-02-09T13:39:52.549Z,53.09
2018-02-09T13:41:02.798Z,53.09
2018-02-09T13:42:13.935Z,52.62
2018-02-09T13:43:24.170Z,52.81
2018-02-09T13:44:34.054Z,52.91
2018-02-09T13:45:44.235Z,52.72
2018-02-09T13:46:54.116Z,52.91
2018-02-09T13:48:04.269Z,52.87
2018-02-09T13:49:14.434Z,53.26
2018-02-09T13:50:24.634Z,53.92
2018-02-09T13:51:34.530Z,54.02
2018-02-09T13:52:44.722Z,54.39
2018-02-09T13:53:54.867Z,54.39
2018-02-09T13:55:05.026Z,54.68
2018-02-09T13:56:14.705Z,54.68
2018-02-09T13:57:24.868Z,54.78
2018-02-09T13:58:35.066Z,55.25
2018-02-09T13:59:45.251Z,56.01
2018-02-09T14:00:56.111Z,55.73
2018-02-09T14:02:06.255Z,55.7
2018-02-09T14:03:16.146Z,56.17
2018-02-09T14:04:26.282Z,56.08
2018-02-09T14:05:36.451Z,56.27
2018-02-09T14:06:46.781Z,56.65
2018-02-09T14:07:56.944Z,56.55
2018-02-09T14:09:07.094Z,56.74
2018-02-09T14:10:16.971Z,56.74
2018-02-09T14:11:27.139Z,56.55
2018-02-09T14:12:37.280Z,56.46
2018-02-09T14:13:47.184Z,56.74
2018-02-09T14:14:57.310Z,56.65
2018-02-09T14:16:07.510Z,56.65
2018-02-09T14:17:17.723Z,57.31
2018-02-09T14:18:27.878Z,57.31
2018-02-09T14:19:38.129Z,56.74
2018-02-09T14:20:48.421Z,56.55
2018-02-09T14:21:58.635Z,56.65
2018-02-09T14:23:08.811Z,56.36
2018-02-09T14:24:19.057Z,56.05
2018-02-09T14:25:28.935Z,55.76
2018-02-09T14:26:39.079Z,55.76
2018-02-09T14:27:49.219Z,56.52
2018-02-09T14:28:59.477Z,56.43
2018-02-09T14:30:09.675Z,56.52
2018-02-09T14:31:19.890Z,57.38
2018-02-09T14:32:30.040Z,57.64
2018-02-09T14:33:40.276Z,57.92
2018-02-09T14:34:50.422Z,58.58
2018-02-09T14:36:00.593Z,58.77
2018-02-09T14:37:10.742Z,59.63
2018-02-09T14:38:20.796Z,59.25
2018-02-09T14:39:30.706Z,59.91
2018-02-09T14:40:40.852Z,60.28
2018-02-09T14:41:51.022Z,60.19
2018-02-09T14:43:01.112Z,61.05
2018-02-09T14:44:11.336Z,61.24
2018-02-09T14:45:21.557Z,61.8
2018-02-09T14:46:31.710Z,61.8
2018-02-09T14:47:41.984Z,61.9
2018-02-09T14:48:52.169Z,61.61
2018-02-09T14:50:03.314Z,62.08
2018-02-09T14:51:13.622Z,62.28
2018-02-09T14:52:23.946Z,62.28
2018-02-09T14:53:34.097Z,62.75
2018-02-09T14:54:44.265Z,62.56
2018-02-09T14:55:54.199Z,62.75
2018-02-09T14:57:04.389Z,62.85
2018-02-09T14:58:14.521Z,62.56
2018-02-09T14:59:24.741Z,62.66
2018-02-09T15:00:34.308Z,63.04
2018-02-09T15:01:44.509Z,63.04
2018-02-09T15:02:54.859Z,62.85
2018-02-09T15:04:04.795Z,62.66
2018-02-09T15:05:15.141Z,62.75
2018-02-09T15:06:25.273Z,62.28
2018-02-09T15:07:35.433Z,62.47
2018-02-09T15:08:45.342Z,62.37
2018-02-09T15:09:55.483Z,62.08
2018-02-09T15:11:05.630Z,61.99
2018-02-09T15:12:15.776Z,62.24
2018-02-09T15:13:25.912Z,62.28
2018-02-09T15:14:36.059Z,62.34
2018-02-09T15:15:46.241Z,62.24
2018-02-09T15:16:57.350Z,62.05
2018-02-09T15:18:07.510Z,61.96
2018-02-09T15:19:17.680Z,62.53
2018-02-09T15:20:27.826Z,62.53